createdAt,value
2018-04-07T00:00:58.291Z,6.65
2018-04-07T00:03:25.784Z,6.68
2018-04-07T00:05:53.275Z,6.65
2018-04-07T00:08:20.792Z,6.56
2018-04-07T00:10:48.281Z,6.52
2018-04-07T00:13:15.762Z,6.44
2018-04-07T00:15:43.285Z,6.33
2018-04-07T00:18:10.778Z,6.24
2018-04-07T00:20:38.263Z,6.14
2018-04-07T00:23:05.787Z,6.08
2018-04-07T00:25:33.270Z,5.95
2018-04-07T00:28:00.759Z,5.86
2018-04-07T00:30:28.266Z,5.78
2018-04-07T00:32:55.750Z,5.80
2018-04-07T00:35:23.234Z,5.82
2018-04-07T00:37:50.742Z,5.83
2018-04-07T00:40:18.238Z,6.03
2018-04-07T00:42:45.742Z,6.02
2018-04-07T00:45:13.254Z,6.03
2018-04-07T00:47:40.747Z,6.08
2018-04-07T00:50:08.234Z,6.02
2018-04-07T00:52:47.570Z,6.02
2018-04-07T00:55:15.063Z,5.96
2018-04-07T00:57:42.565Z,5.85
2018-04-07T01:00:10.074Z,5.81
2018-04-07T01:02:37.574Z,5.65
2018-04-07T01:05:05.064Z,5.55
2018-04-07T01:07:33.571Z,5.45
2018-04-07T01:10:01.062Z,5.38
2018-04-07T01:12:28.546Z,5.35
2018-04-07T01:14:56.064Z,5.37
2018-04-07T01:17:23.551Z,5.35
2018-04-07T01:19:51.037Z,5.44
2018-04-07T01:22:18.556Z,5.16
2018-04-07T01:24:46.033Z,5.51
2018-04-07T01:27:13.523Z,5.52
2018-04-07T01:29:41.038Z,5.54
2018-04-07T01:32:08.523Z,5.46
2018-04-07T01:34:36.028Z,5.42
2018-04-07T01:37:03.533Z,5.37
2018-04-07T01:39:31.022Z,5.35
2018-04-07T01:41:58.514Z,5.23
2018-04-07T01:44:26.025Z,5.17
2018-04-07T01:46:53.514Z,5.01
2018-04-07T01:49:20.999Z,5.02
2018-04-07T01:51:48.517Z,5.00
2018-04-07T01:54:16.006Z,4.88
2018-04-07T01:56:43.495Z,3.95
2018-04-07T01:59:11.029Z,4.76
2018-04-07T02:01:38.521Z,4.77
2018-04-07T02:04:06.008Z,4.80
2018-04-07T02:06:33.518Z,4.92
2018-04-07T02:09:01.001Z,5.02
2018-04-07T02:11:28.482Z,4.93
2018-04-07T02:13:55.990Z,4.92
2018-04-07T02:16:23.473Z,4.88
2018-04-07T02:18:50.966Z,4.83
2018-04-07T02:21:18.483Z,4.94
2018-04-07T02:23:45.975Z,4.99
2018-04-07T02:26:13.533Z,5.14
2018-04-07T02:28:41.054Z,5.14
2018-04-07T02:31:08.539Z,5.17
2018-04-07T02:33:36.036Z,5.06
2018-04-07T02:36:03.613Z,4.96
2018-04-07T02:38:31.098Z,4.88
2018-04-07T02:40:58.587Z,4.85
2018-04-07T02:43:26.096Z,4.86
2018-04-07T02:45:53.614Z,4.73
2018-04-07T02:48:21.120Z,4.62
2018-04-07T02:50:48.635Z,4.54
2018-04-07T02:53:16.118Z,4.57
2018-04-07T02:55:43.611Z,4.55
2018-04-07T02:58:11.132Z,4.50
2018-04-07T03:00:38.623Z,4.54
2018-04-07T03:03:06.111Z,4.57
2018-04-07T03:05:33.618Z,4.53
2018-04-07T03:08:01.107Z,4.42
2018-04-07T03:10:28.598Z,4.25
2018-04-07T03:12:56.107Z,4.33
2018-04-07T03:15:23.602Z,4.35
2018-04-07T03:17:51.082Z,4.27
2018-04-07T03:20:18.598Z,4.27
2018-04-07T03:22:46.091Z,4.23
2018-04-07T03:25:13.583Z,4.20
2018-04-07T03:27:41.092Z,4.19
2018-04-07T03:30:08.583Z,4.18
2018-04-07T03:32:36.075Z,4.08
2018-04-07T03:35:03.597Z,4.07
2018-04-07T03:37:31.088Z,4.11
2018-04-07T03:39:58.580Z,4.02
2018-04-07T03:42:26.093Z,4.01
2018-04-07T03:44:53.578Z,4.01
2018-04-07T03:47:21.063Z,4.09
2018-04-07T03:49:48.583Z,4.11
2018-04-07T03:52:16.066Z,4.21
2018-04-07T03:54:43.550Z,4.16
2018-04-07T03:57:11.053Z,4.11
2018-04-07T03:59:38.556Z,4.03
2018-04-07T04:02:06.046Z,3.97
2018-04-07T04:04:33.563Z,3.96
2018-04-07T04:07:01.046Z,3.90
2018-04-07T04:09:28.535Z,3.82
2018-04-07T04:11:56.058Z,3.74
2018-04-07T04:14:23.544Z,3.70
2018-04-07T04:16:51.026Z,3.73
2018-04-07T04:19:19.139Z,3.73
2018-04-07T04:21:46.627Z,3.71
2018-04-07T04:24:14.131Z,3.71
2018-04-07T04:26:41.641Z,3.64
2018-04-07T04:29:09.137Z,3.61
2018-04-07T04:31:36.623Z,3.60
2018-04-07T04:34:05.098Z,3.57
2018-04-07T04:36:32.587Z,3.56
2018-04-07T04:39:00.071Z,3.56
2018-04-07T04:41:27.586Z,3.54
2018-04-07T04:43:55.074Z,3.58
2018-04-07T04:46:22.553Z,3.61
2018-04-07T04:48:50.062Z,3.74
2018-04-07T04:51:17.547Z,3.87
2018-04-07T04:53:45.043Z,3.99
2018-04-07T04:56:12.563Z,3.68
2018-04-07T04:58:40.042Z,4.20
2018-04-07T05:01:07.529Z,4.47
2018-04-07T05:03:35.051Z,4.65
2018-04-07T05:06:02.535Z,4.58
2018-04-07T05:08:30.027Z,4.41
2018-04-07T05:10:57.538Z,4.44
2018-04-07T05:13:25.036Z,4.72
2018-04-07T05:15:52.617Z,4.91
2018-04-07T05:18:21.086Z,5.05
2018-04-07T05:20:48.579Z,5.15
2018-04-07T05:23:16.067Z,5.28
2018-04-07T05:25:43.595Z,5.56
2018-04-07T05:28:11.099Z,5.86
2018-04-07T05:30:38.583Z,5.98
2018-04-07T05:33:06.091Z,5.95
2018-04-07T05:35:33.578Z,5.83
2018-04-07T05:38:01.061Z,5.91
2018-04-07T05:40:28.578Z,6.14
2018-04-07T05:42:56.061Z,6.31
2018-04-07T05:45:23.545Z,6.69
2018-04-07T05:47:51.055Z,6.65
2018-04-07T05:50:18.533Z,6.53
2018-04-07T05:52:46.029Z,6.90
2018-04-07T05:55:13.539Z,6.98
2018-04-07T05:57:41.023Z,7.15
2018-04-07T06:00:08.619Z,7.30
2018-04-07T06:02:36.302Z,7.54
2018-04-07T06:05:03.777Z,7.81
2018-04-07T06:07:31.258Z,9.04
2018-04-07T06:09:58.762Z,9.95
2018-04-07T06:12:26.241Z,10.93
2018-04-07T06:14:53.725Z,11.63
2018-04-07T06:17:21.238Z,11.79
2018-04-07T06:19:48.723Z,12.36
2018-04-07T06:22:16.202Z,12.54
2018-04-07T06:24:43.697Z,12.38
2018-04-07T06:27:11.178Z,12.47
2018-04-07T06:29:38.658Z,12.75
2018-04-07T06:32:06.153Z,13.34
2018-04-07T06:34:35.455Z,13.72
2018-04-07T06:37:02.940Z,14.17
2018-04-07T06:39:30.447Z,14.23
2018-04-07T06:41:57.974Z,14.16
2018-04-07T06:44:25.447Z,15.04
2018-04-07T06:46:53.140Z,15.48
2018-04-07T06:49:20.760Z,14.85
2018-04-07T06:51:48.394Z,14.41
2018-04-07T06:54:15.902Z,14.76
2018-04-07T06:56:43.382Z,15.05
2018-04-07T06:59:10.866Z,14.65
2018-04-07T07:01:38.369Z,14.96
2018-04-07T07:04:05.846Z,14.75
2018-04-07T07:06:33.335Z,14.93
2018-04-07T07:09:00.855Z,15.05
2018-04-07T07:11:28.350Z,15.56
2018-04-07T07:13:55.851Z,15.27
2018-04-07T07:16:23.389Z,15.76
2018-04-07T07:18:50.887Z,15.89
2018-04-07T07:21:18.379Z,15.94
2018-04-07T07:23:45.891Z,15.25
2018-04-07T07:26:13.374Z,15.63
2018-04-07T07:28:40.856Z,16.07
2018-04-07T07:31:08.369Z,16.10
2018-04-07T07:33:35.854Z,17.15
2018-04-07T07:36:03.338Z,16.59
2018-04-07T07:38:30.847Z,17.63
2018-04-07T07:40:58.328Z,19.03
2018-04-07T07:43:26.739Z,18.22
2018-04-07T07:45:54.272Z,19.21
2018-04-07T07:48:21.754Z,19.62
2018-04-07T07:50:50.391Z,19.24
2018-04-07T07:53:17.968Z,19.23
2018-04-07T07:55:45.449Z,19.89
2018-04-07T07:58:12.922Z,19.13
2018-04-07T08:00:40.431Z,18.85
2018-04-07T08:03:07.928Z,18.70
2018-04-07T08:05:35.415Z,19.93
2018-04-07T08:08:02.923Z,19.67
2018-04-07T08:10:30.412Z,20.35
2018-04-07T08:12:57.899Z,19.96
2018-04-07T08:15:25.427Z,20.23
2018-04-07T08:17:52.901Z,20.28
2018-04-07T08:20:20.388Z,20.58
2018-04-07T08:22:47.898Z,21.06
2018-04-07T08:25:15.388Z,21.33
2018-04-07T08:27:42.875Z,20.88
2018-04-07T08:30:10.393Z,21.33
2018-04-07T08:32:37.866Z,21.95
2018-04-07T08:35:05.346Z,20.86
2018-04-07T08:37:33.852Z,20.58
2018-04-07T08:40:01.338Z,21.79
2018-04-07T08:42:28.809Z,20.29
2018-04-07T08:44:56.310Z,20.05
2018-04-07T08:47:23.799Z,20.78
2018-04-07T08:49:51.283Z,21.31
2018-04-07T08:52:18.794Z,21.32
2018-04-07T08:54:46.282Z,20.64
2018-04-07T08:57:13.786Z,21.78
2018-04-07T08:59:41.302Z,22.54
2018-04-07T09:02:08.777Z,22.04
2018-04-07T09:04:36.258Z,21.88
2018-04-07T09:07:03.796Z,21.87
2018-04-07T09:09:32.176Z,21.41
2018-04-07T09:11:59.674Z,20.95
2018-04-07T09:14:27.238Z,21.02
2018-04-07T09:16:55.735Z,21.24
2018-04-07T09:19:23.250Z,20.34
2018-04-07T09:21:50.735Z,20.19
2018-04-07T09:24:18.218Z,20.90
2018-04-07T09:26:45.703Z,22.01
2018-04-07T09:29:13.208Z,21.95
2018-04-07T09:31:40.696Z,21.32
2018-04-07T09:34:08.248Z,22.43
2018-04-07T09:36:35.768Z,22.26
2018-04-07T09:39:03.269Z,21.68
2018-04-07T09:41:30.754Z,20.71
2018-04-07T09:43:58.268Z,21.25
2018-04-07T09:46:25.758Z,21.64
2018-04-07T09:48:53.312Z,21.01
2018-04-07T09:51:20.828Z,21.68
2018-04-07T09:53:48.306Z,20.65
2018-04-07T09:56:15.794Z,21.37
2018-04-07T09:58:43.322Z,22.28
2018-04-07T10:01:10.830Z,21.76
2018-04-07T10:03:38.344Z,21.56
2018-04-07T10:06:05.860Z,22.05
2018-04-07T10:08:33.352Z,24.06
2018-04-07T10:11:00.845Z,24.43
2018-04-07T10:13:28.367Z,23.79
2018-04-07T10:15:55.850Z,22.77
2018-04-07T10:18:23.346Z,22.72
2018-04-07T10:20:50.887Z,23.32
2018-04-07T10:23:18.452Z,24.87
2018-04-07T10:25:45.943Z,23.91
2018-04-07T10:28:13.469Z,24.70
2018-04-07T10:30:40.958Z,25.10
2018-04-07T10:33:08.443Z,24.76
2018-04-07T10:35:35.954Z,24.24
2018-04-07T10:38:03.439Z,24.00
2018-04-07T10:40:30.931Z,25.89
2018-04-07T10:42:58.450Z,27.03
2018-04-07T10:45:25.939Z,27.68
2018-04-07T10:47:53.437Z,27.74
2018-04-07T10:50:20.950Z,26.52
2018-04-07T10:52:48.464Z,27.97
2018-04-07T10:55:15.975Z,26.62
2018-04-07T10:57:43.498Z,24.87
2018-04-07T11:00:11.006Z,24.75
2018-04-07T11:02:38.547Z,23.98
2018-04-07T11:05:06.062Z,24.27
2018-04-07T11:07:33.560Z,25.73
2018-04-07T11:10:01.071Z,26.12
2018-04-07T11:12:28.610Z,23.39
2018-04-07T11:14:56.100Z,22.59
2018-04-07T11:17:23.613Z,23.91
2018-04-07T11:19:51.139Z,23.36
2018-04-07T11:22:18.628Z,21.90
2018-04-07T11:24:46.441Z,21.50
2018-04-07T11:27:13.946Z,22.56
2018-04-07T11:29:41.459Z,23.47
2018-04-07T11:32:08.952Z,22.35
2018-04-07T11:34:36.475Z,21.35
2018-04-07T11:37:03.963Z,21.46
2018-04-07T11:39:31.454Z,22.20
2018-04-07T11:41:58.967Z,22.61
2018-04-07T11:44:26.448Z,21.35
2018-04-07T11:46:53.944Z,20.90
2018-04-07T11:49:21.454Z,20.64
2018-04-07T11:51:48.975Z,20.67
2018-04-07T11:54:16.481Z,21.92
2018-04-07T11:56:43.999Z,22.49
2018-04-07T11:59:11.491Z,22.26
2018-04-07T12:01:39.559Z,21.99
2018-04-07T12:04:07.076Z,21.99
2018-04-07T12:06:34.574Z,21.28
2018-04-07T12:09:02.079Z,21.31
2018-04-07T12:11:29.596Z,21.66
2018-04-07T12:13:57.090Z,21.82
2018-04-07T12:16:24.620Z,22.03
2018-04-07T12:18:52.179Z,20.64
2018-04-07T12:21:19.680Z,18.97
2018-04-07T12:23:47.179Z,18.85
2018-04-07T12:26:14.698Z,18.69
2018-04-07T12:28:42.186Z,18.32
2018-04-07T12:31:09.684Z,18.71
2018-04-07T12:33:37.203Z,18.90
2018-04-07T12:36:04.716Z,18.68
2018-04-07T12:38:32.202Z,18.90
2018-04-07T12:40:59.718Z,18.93
2018-04-07T12:43:27.213Z,18.81
2018-04-07T12:45:54.703Z,18.80
2018-04-07T12:48:22.214Z,19.06
2018-04-07T12:50:49.706Z,19.38
2018-04-07T12:53:17.208Z,19.23
2018-04-07T12:55:45.710Z,19.27
2018-04-07T12:58:13.198Z,19.29
2018-04-07T13:00:40.687Z,19.41
2018-04-07T13:03:08.202Z,19.43
2018-04-07T13:05:35.686Z,19.63
2018-04-07T13:08:03.178Z,19.86
2018-04-07T13:10:30.699Z,19.53
2018-04-07T13:12:58.195Z,19.53
2018-04-07T13:15:25.682Z,19.41
2018-04-07T13:17:53.271Z,19.45
2018-04-07T13:20:20.760Z,19.42
2018-04-07T13:22:48.246Z,19.52
2018-04-07T13:25:15.766Z,19.74
2018-04-07T13:27:43.252Z,19.61
2018-04-07T13:30:10.754Z,19.60
2018-04-07T13:32:38.267Z,19.56
2018-04-07T13:35:05.766Z,19.72
2018-04-07T13:37:33.254Z,19.72
2018-04-07T13:40:00.779Z,19.74
2018-04-07T13:42:28.258Z,19.67
2018-04-07T13:44:55.742Z,19.90
2018-04-07T13:47:23.258Z,19.98
2018-04-07T13:49:50.749Z,19.94
2018-04-07T13:52:18.243Z,19.81
2018-04-07T13:54:45.756Z,19.84
2018-04-07T13:57:13.246Z,20.06
2018-04-07T13:59:40.727Z,20.10
2018-04-07T14:02:08.243Z,19.97
2018-04-07T14:04:35.730Z,20.27
2018-04-07T14:07:04.125Z,20.20
2018-04-07T14:09:31.642Z,20.28
2018-04-07T14:11:59.131Z,20.30
2018-04-07T14:14:26.635Z,20.13
2018-04-07T14:16:54.145Z,20.33
2018-04-07T14:19:21.643Z,20.34
2018-04-07T14:21:49.136Z,20.30
2018-04-07T14:24:16.647Z,20.34
2018-04-07T14:26:44.139Z,20.42
2018-04-07T14:29:11.626Z,20.31
2018-04-07T14:31:39.138Z,20.37
2018-04-07T14:34:06.631Z,20.26
2018-04-07T14:36:34.116Z,20.45
2018-04-07T14:39:01.642Z,20.38
2018-04-07T14:41:29.123Z,20.31
2018-04-07T14:43:56.612Z,20.23
2018-04-07T14:46:24.116Z,20.29
2018-04-07T14:48:51.604Z,20.26
2018-04-07T14:51:19.091Z,20.14
2018-04-07T14:53:46.597Z,20.25
2018-04-07T14:56:14.083Z,20.46
2018-04-07T14:58:41.565Z,20.47
2018-04-07T15:01:09.108Z,20.29
2018-04-07T15:03:36.615Z,20.10
2018-04-07T15:06:04.099Z,20.36
2018-04-07T15:08:31.607Z,20.44
2018-04-07T15:10:59.093Z,20.41
2018-04-07T15:13:26.618Z,20.46
2018-04-07T15:15:54.902Z,20.35
2018-04-07T15:18:22.382Z,20.26
2018-04-07T15:20:49.866Z,20.15
2018-04-07T15:23:17.393Z,20.26
2018-04-07T15:25:44.874Z,20.31
2018-04-07T15:28:12.357Z,20.36
2018-04-07T15:30:39.895Z,20.28
2018-04-07T15:33:07.380Z,20.17
2018-04-07T15:35:34.859Z,20.18
2018-04-07T15:38:02.370Z,20.27
2018-04-07T15:40:29.860Z,20.01
2018-04-07T15:42:57.341Z,20.14
2018-04-07T15:45:24.850Z,20.16
2018-04-07T15:47:52.343Z,20.10
2018-04-07T15:50:19.830Z,20.14
2018-04-07T15:52:47.337Z,20.14
2018-04-07T15:55:14.826Z,20.07
2018-04-07T15:57:42.318Z,19.87
2018-04-07T16:00:09.828Z,19.77
2018-04-07T16:02:37.313Z,19.84
2018-04-07T16:05:04.794Z,19.84
2018-04-07T16:07:32.312Z,19.81
2018-04-07T16:09:59.800Z,19.78
2018-04-07T16:12:27.290Z,19.80
2018-04-07T16:14:54.799Z,19.81
2018-04-07T16:17:22.296Z,19.62
2018-04-07T16:19:49.782Z,19.67
2018-04-07T16:22:17.287Z,19.54
2018-04-07T16:24:44.770Z,19.47
2018-04-07T16:27:12.254Z,19.40
2018-04-07T16:29:39.763Z,19.40
2018-04-07T16:32:07.251Z,19.40
2018-04-07T16:34:34.733Z,19.32
2018-04-07T16:37:02.252Z,19.26
2018-04-07T16:39:29.734Z,19.21
2018-04-07T16:41:57.209Z,19.21
2018-04-07T16:44:24.714Z,19.13
2018-04-07T16:46:52.207Z,19.09
2018-04-07T16:49:19.686Z,19.02
2018-04-07T16:51:47.195Z,18.99
2018-04-07T16:54:14.708Z,18.99
2018-04-07T16:56:42.206Z,18.92
2018-04-07T16:59:09.719Z,18.83
2018-04-07T17:01:37.205Z,18.72
2018-04-07T17:04:04.692Z,18.64
2018-04-07T17:06:32.195Z,18.54
2018-04-07T17:08:59.683Z,18.41
2018-04-07T17:11:27.163Z,18.36
2018-04-07T17:13:54.671Z,18.24
2018-04-07T17:16:22.153Z,18.15
2018-04-07T17:18:50.626Z,18.08
2018-04-07T17:21:18.134Z,17.94
2018-04-07T17:23:45.623Z,17.83
2018-04-07T17:26:13.121Z,17.69
2018-04-07T17:28:40.631Z,17.54
2018-04-07T17:31:08.119Z,17.35
2018-04-07T17:33:35.610Z,17.19
2018-04-07T17:36:03.122Z,17.03
2018-04-07T17:38:30.615Z,16.85
2018-04-07T17:40:58.106Z,16.68
2018-04-07T17:43:25.611Z,16.53
2018-04-07T17:45:53.095Z,16.37
2018-04-07T17:48:20.712Z,16.18
2018-04-07T17:50:48.284Z,16.05
2018-04-07T17:53:15.778Z,15.90
2018-04-07T17:55:43.267Z,15.77
2018-04-07T17:58:10.774Z,15.64
2018-04-07T18:00:38.250Z,15.55
2018-04-07T18:03:05.731Z,15.48
2018-04-07T18:05:33.241Z,15.36
2018-04-07T18:08:00.713Z,15.24
2018-04-07T18:10:28.203Z,15.12
2018-04-07T18:12:55.731Z,14.99
2018-04-07T18:15:23.210Z,14.86
2018-04-07T18:17:50.844Z,14.73
2018-04-07T18:20:18.542Z,14.61
2018-04-07T18:22:46.183Z,14.52
2018-04-07T18:25:13.829Z,14.46
2018-04-07T18:27:41.507Z,14.40
2018-04-07T18:30:09.129Z,14.32
2018-04-07T18:32:36.820Z,14.24
2018-04-07T18:35:04.497Z,14.18
2018-04-07T18:37:32.190Z,14.16
2018-04-07T18:39:59.822Z,14.07
2018-04-07T18:42:27.514Z,13.98
2018-04-07T18:44:55.175Z,13.90
2018-04-07T18:47:22.836Z,13.83
2018-04-07T18:49:50.414Z,13.76
2018-04-07T18:52:17.909Z,13.69
2018-04-07T18:54:45.518Z,13.63
2018-04-07T18:57:13.026Z,13.59
2018-04-07T18:59:40.507Z,13.55
2018-04-07T19:02:08.016Z,13.32
2018-04-07T19:04:35.532Z,13.40
2018-04-07T19:07:03.030Z,13.37
2018-04-07T19:09:30.804Z,13.32
2018-04-07T19:11:58.578Z,13.20
2018-04-07T19:14:28.359Z,13.11
2018-04-07T19:16:55.834Z,12.96
2018-04-07T19:19:23.339Z,12.88
2018-04-07T19:21:50.822Z,12.77
2018-04-07T19:24:18.323Z,12.80
2018-04-07T19:26:45.830Z,12.84
2018-04-07T19:29:13.314Z,12.77
2018-04-07T19:31:40.809Z,12.68
2018-04-07T19:34:08.323Z,12.60
2018-04-07T19:36:35.812Z,12.59
2018-04-07T19:39:03.302Z,12.52
2018-04-07T19:41:30.824Z,12.47
2018-04-07T19:43:58.315Z,12.36
2018-04-07T19:46:25.826Z,12.47
2018-04-07T19:48:53.346Z,12.55
2018-04-07T19:51:20.830Z,12.79
2018-04-07T19:53:48.308Z,12.78
2018-04-07T19:56:15.822Z,12.69
2018-04-07T19:58:43.318Z,12.60
2018-04-07T20:01:10.807Z,12.57
2018-04-07T20:03:38.319Z,12.54
2018-04-07T20:06:06.763Z,12.53
2018-04-07T20:08:34.249Z,12.44
2018-04-07T20:11:01.763Z,12.45
2018-04-07T20:13:29.269Z,12.51
2018-04-07T20:15:56.778Z,12.54
2018-04-07T20:18:24.277Z,12.56
2018-04-07T20:20:51.753Z,12.55
2018-04-07T20:23:19.239Z,12.48
2018-04-07T20:25:46.742Z,12.58
2018-04-07T20:28:14.254Z,12.65
2018-04-07T20:30:41.730Z,12.63
2018-04-07T20:33:09.291Z,12.52
2018-04-07T20:35:36.806Z,12.43
2018-04-07T20:38:04.298Z,12.25
2018-04-07T20:40:31.844Z,11.93
2018-04-07T20:42:59.326Z,11.95
2018-04-07T20:45:26.809Z,11.85
2018-04-07T20:47:54.319Z,11.75
2018-04-07T20:50:21.826Z,11.67
2018-04-07T20:52:49.313Z,11.58
2018-04-07T20:55:16.871Z,11.52
2018-04-07T20:57:44.335Z,11.45
2018-04-07T21:00:11.842Z,11.41
2018-04-07T21:02:39.362Z,11.41
2018-04-07T21:05:06.846Z,11.35
2018-04-07T21:07:34.327Z,11.29
2018-04-07T21:10:01.839Z,11.24
2018-04-07T21:12:29.324Z,11.22
2018-04-07T21:14:56.807Z,11.16
2018-04-07T21:17:24.370Z,11.12
2018-04-07T21:19:51.836Z,11.18
2018-04-07T21:22:19.342Z,11.20
2018-04-07T21:24:46.859Z,11.21
2018-04-07T21:27:14.343Z,11.23
2018-04-07T21:29:41.827Z,11.24
2018-04-07T21:32:09.341Z,11.20
2018-04-07T21:34:36.821Z,11.28
2018-04-07T21:37:04.315Z,11.22
2018-04-07T21:39:31.827Z,11.16
2018-04-07T21:41:59.297Z,11.08
2018-04-07T21:44:26.874Z,11.08
2018-04-07T21:46:54.387Z,11.09
2018-04-07T21:49:21.870Z,11.06
2018-04-07T21:51:49.353Z,11.04
2018-04-07T21:54:16.862Z,11.03
2018-04-07T21:56:44.341Z,10.95
2018-04-07T21:59:11.830Z,10.89
2018-04-07T22:01:39.371Z,10.88
2018-04-07T22:04:07.738Z,10.83
2018-04-07T22:06:35.228Z,10.81
2018-04-07T22:09:02.738Z,10.79
2018-04-07T22:11:30.222Z,10.75
2018-04-07T22:13:57.702Z,10.80
2018-04-07T22:16:25.214Z,10.98
2018-04-07T22:18:52.703Z,11.08
2018-04-07T22:21:20.195Z,11.15
2018-04-07T22:23:47.706Z,11.19
2018-04-07T22:26:15.187Z,11.14
2018-04-07T22:28:42.679Z,11.06
2018-04-07T22:31:10.177Z,11.15
2018-04-07T22:33:37.663Z,11.23
2018-04-07T22:36:05.176Z,11.31
2018-04-07T22:38:32.695Z,11.16
2018-04-07T22:41:00.184Z,11.18
2018-04-07T22:43:27.675Z,11.16
2018-04-07T22:45:55.294Z,11.23
2018-04-07T22:48:22.782Z,11.33
2018-04-07T22:50:50.262Z,11.36
2018-04-07T22:53:17.770Z,11.27
2018-04-07T22:55:45.253Z,11.11
2018-04-07T22:58:12.725Z,11.07
2018-04-07T23:00:40.227Z,10.99
2018-04-07T23:03:07.711Z,10.96
2018-04-07T23:05:35.202Z,10.84
2018-04-07T23:08:02.705Z,10.87
2018-04-07T23:10:30.187Z,10.74
2018-04-07T23:12:57.674Z,10.62
2018-04-07T23:15:25.190Z,10.44
2018-04-07T23:17:52.674Z,10.35
2018-04-07T23:20:20.160Z,10.38
2018-04-07T23:22:47.662Z,10.35
2018-04-07T23:25:15.155Z,10.37
2018-04-07T23:27:42.643Z,10.42
2018-04-07T23:30:11.154Z,10.48
2018-04-07T23:32:38.651Z,10.51
2018-04-07T23:35:06.141Z,10.44
2018-04-07T23:37:33.654Z,10.38
2018-04-07T23:40:01.138Z,10.33
2018-04-07T23:42:28.630Z,10.32
2018-04-07T23:44:56.148Z,10.29
2018-04-07T23:47:23.630Z,10.20
2018-04-07T23:49:51.114Z,10.07
2018-04-07T23:52:18.626Z,10.04
2018-04-07T23:54:46.108Z,9.99
2018-04-07T23:57:13.618Z,9.97
2018-04-07T23:59:41.134Z,10.09
